Frenchboro, Maine
Current Conditions -  °F | °C
As of 2:35 PM on Tuesday 21 Oct 2014 (Local Time) from KBHB Reporting Station
Overcast Overcast  
Wind Chill: 54°   Ceiling: 4900
Heat Index: 54°   Visibility: 10mi
Dew Point: 48°   Wind: 8mph
Humidity: 82%   Direction: 60°ENE
Pressure: 30.07"   Gusts: NA
Location:  44.12°N, 68.36°W
Report Text: KBHB 211835Z AUTO 06007KT 10SM SCT042 BKN049 OVC070 12/09 A3007 RMK AO1
Loading
Personal Weather Stations






























Interactive Weather Map
Tropical Storm Tracking
New forecast layout! Learn more

10-Day Weather Forecast

Advertisements
Track Severe Weather on mobile